sensor_id;sensor_type;location;lat;lon;timestamp;temperature;humidity
26099;DHT22;13860;52.370;6.764;2022-12-29T00:01:46;11.10;91.40
26099;DHT22;13860;52.370;6.764;2022-12-29T00:04:50;11.10;91.40
26099;DHT22;13860;52.370;6.764;2022-12-29T00:07:54;11.10;91.40
26099;DHT22;13860;52.370;6.764;2022-12-29T00:10:59;11.20;91.40
26099;DHT22;13860;52.370;6.764;2022-12-29T00:14:03;11.20;91.40
26099;DHT22;13860;52.370;6.764;2022-12-29T00:17:27;11.20;91.40
26099;DHT22;13860;52.370;6.764;2022-12-29T00:20:34;11.20;91.40
26099;DHT22;13860;52.370;6.764;2022-12-29T00:23:51;11.20;91.40
26099;DHT22;13860;52.370;6.764;2022-12-29T00:27:12;11.30;91.40
26099;DHT22;13860;52.370;6.764;2022-12-29T00:30:29;11.30;91.40
26099;DHT22;13860;52.370;6.764;2022-12-29T00:33:46;11.30;91.40
26099;DHT22;13860;52.370;6.764;2022-12-29T00:37:03;11.30;91.30
26099;DHT22;13860;52.370;6.764;2022-12-29T00:40:09;11.40;91.40
26099;DHT22;13860;52.370;6.764;2022-12-29T00:43:28;11.40;91.40
26099;DHT22;13860;52.370;6.764;2022-12-29T00:46:45;11.40;91.30
26099;DHT22;13860;52.370;6.764;2022-12-29T00:49:49;11.40;91.30
26099;DHT22;13860;52.370;6.764;2022-12-29T00:52:52;11.40;91.30
26099;DHT22;13860;52.370;6.764;2022-12-29T00:55:56;11.50;91.30
26099;DHT22;13860;52.370;6.764;2022-12-29T00:59:03;11.50;91.30
26099;DHT22;13860;52.370;6.764;2022-12-29T01:02:08;11.50;91.30
26099;DHT22;13860;52.370;6.764;2022-12-29T01:05:13;11.50;91.30
26099;DHT22;13860;52.370;6.764;2022-12-29T01:08:19;11.50;91.30
26099;DHT22;13860;52.370;6.764;2022-12-29T01:11:23;11.50;91.30
26099;DHT22;13860;52.370;6.764;2022-12-29T01:14:27;11.60;91.30
26099;DHT22;13860;52.370;6.764;2022-12-29T01:17:31;11.50;91.20
26099;DHT22;13860;52.370;6.764;2022-12-29T01:20:35;11.60;91.60
26099;DHT22;13860;52.370;6.764;2022-12-29T01:23:39;11.60;91.20
26099;DHT22;13860;52.370;6.764;2022-12-29T01:26:43;11.60;91.20
26099;DHT22;13860;52.370;6.764;2022-12-29T01:29:49;11.60;91.20
26099;DHT22;13860;52.370;6.764;2022-12-29T01:32:53;11.60;91.20
26099;DHT22;13860;52.370;6.764;2022-12-29T01:36:00;11.60;91.20
26099;DHT22;13860;52.370;6.764;2022-12-29T01:39:04;11.60;91.20
26099;DHT22;13860;52.370;6.764;2022-12-29T01:42:13;11.60;91.20
26099;DHT22;13860;52.370;6.764;2022-12-29T01:45:21;11.60;91.20
26099;DHT22;13860;52.370;6.764;2022-12-29T01:48:25;11.60;91.20
26099;DHT22;13860;52.370;6.764;2022-12-29T01:51:31;11.60;91.20
26099;DHT22;13860;52.370;6.764;2022-12-29T01:54:39;11.60;91.20
26099;DHT22;13860;52.370;6.764;2022-12-29T01:57:47;11.60;91.20
26099;DHT22;13860;52.370;6.764;2022-12-29T02:00:54;11.60;91.20
26099;DHT22;13860;52.370;6.764;2022-12-29T02:03:58;11.60;91.10
26099;DHT22;13860;52.370;6.764;2022-12-29T02:07:05;11.50;91.10
26099;DHT22;13860;52.370;6.764;2022-12-29T02:10:11;11.60;91.20
26099;DHT22;13860;52.370;6.764;2022-12-29T02:13:16;11.60;91.10
26099;DHT22;13860;52.370;6.764;2022-12-29T02:16:40;11.50;91.10
26099;DHT22;13860;52.370;6.764;2022-12-29T02:27:09;11.50;91.10
26099;DHT22;13860;52.370;6.764;2022-12-29T02:34:10;11.50;91.10
26099;DHT22;13860;52.370;6.764;2022-12-29T02:37:24;11.50;91.10
26099;DHT22;13860;52.370;6.764;2022-12-29T02:40:35;11.40;91.10
26099;DHT22;13860;52.370;6.764;2022-12-29T02:43:54;11.40;91.10
26099;DHT22;13860;52.370;6.764;2022-12-29T02:47:04;11.40;91.20
26099;DHT22;13860;52.370;6.764;2022-12-29T02:50:15;11.40;91.20
26099;DHT22;13860;52.370;6.764;2022-12-29T02:53:21;11.50;91.20
26099;DHT22;13860;52.370;6.764;2022-12-29T02:56:40;11.50;91.20
26099;DHT22;13860;52.370;6.764;2022-12-29T02:59:43;11.50;91.30
26099;DHT22;13860;52.370;6.764;2022-12-29T03:03:12;11.50;91.30
26099;DHT22;13860;52.370;6.764;2022-12-29T03:06:32;11.50;91.30
26099;DHT22;13860;52.370;6.764;2022-12-29T03:09:39;11.50;91.30
26099;DHT22;13860;52.370;6.764;2022-12-29T03:12:52;11.50;91.30
26099;DHT22;13860;52.370;6.764;2022-12-29T03:16:17;11.50;91.30
26099;DHT22;13860;52.370;6.764;2022-12-29T03:19:26;11.50;91.30
26099;DHT22;13860;52.370;6.764;2022-12-29T03:22:38;11.50;91.30
26099;DHT22;13860;52.370;6.764;2022-12-29T03:25:48;11.50;91.30
26099;DHT22;13860;52.370;6.764;2022-12-29T03:28:55;11.50;91.30
26099;DHT22;13860;52.370;6.764;2022-12-29T03:32:05;11.50;91.30
26099;DHT22;13860;52.370;6.764;2022-12-29T03:35:11;11.50;91.20
26099;DHT22;13860;52.370;6.764;2022-12-29T03:38:21;11.60;91.20
26099;DHT22;13860;52.370;6.764;2022-12-29T03:41:32;11.50;91.20
26099;DHT22;13860;52.370;6.764;2022-12-29T03:44:40;11.50;91.20
26099;DHT22;13860;52.370;6.764;2022-12-29T03:47:45;11.50;91.20
26099;DHT22;13860;52.370;6.764;2022-12-29T03:50:51;11.50;91.20
26099;DHT22;13860;52.370;6.764;2022-12-29T03:53:57;11.50;91.20
26099;DHT22;13860;52.370;6.764;2022-12-29T03:57:00;11.40;91.20
26099;DHT22;13860;52.370;6.764;2022-12-29T04:00:17;11.40;91.20
26099;DHT22;13860;52.370;6.764;2022-12-29T04:03:23;11.40;91.20
26099;DHT22;13860;52.370;6.764;2022-12-29T04:06:27;11.40;91.20
26099;DHT22;13860;52.370;6.764;2022-12-29T04:09:40;11.40;91.20
26099;DHT22;13860;52.370;6.764;2022-12-29T04:12:48;11.40;91.20
26099;DHT22;13860;52.370;6.764;2022-12-29T04:15:51;11.30;91.20
26099;DHT22;13860;52.370;6.764;2022-12-29T04:18:55;11.40;91.20
26099;DHT22;13860;52.370;6.764;2022-12-29T04:22:00;11.40;91.20
26099;DHT22;13860;52.370;6.764;2022-12-29T04:25:07;11.30;91.20
26099;DHT22;13860;52.370;6.764;2022-12-29T04:28:11;11.30;91.20
26099;DHT22;13860;52.370;6.764;2022-12-29T04:31:29;11.40;91.20
26099;DHT22;13860;52.370;6.764;2022-12-29T04:34:33;11.30;91.20
26099;DHT22;13860;52.370;6.764;2022-12-29T04:37:37;11.30;91.20
26099;DHT22;13860;52.370;6.764;2022-12-29T04:40:44;11.30;91.20
26099;DHT22;13860;52.370;6.764;2022-12-29T04:43:48;11.30;91.20
26099;DHT22;13860;52.370;6.764;2022-12-29T04:47:13;11.30;91.20
26099;DHT22;13860;52.370;6.764;2022-12-29T04:50:42;11.30;91.20
26099;DHT22;13860;52.370;6.764;2022-12-29T04:53:51;11.40;91.20
26099;DHT22;13860;52.370;6.764;2022-12-29T04:56:56;11.30;91.20
26099;DHT22;13860;52.370;6.764;2022-12-29T05:00:00;11.30;91.20
26099;DHT22;13860;52.370;6.764;2022-12-29T05:03:04;11.30;91.20
26099;DHT22;13860;52.370;6.764;2022-12-29T05:06:10;11.30;91.20
26099;DHT22;13860;52.370;6.764;2022-12-29T05:09:14;11.30;91.20
26099;DHT22;13860;52.370;6.764;2022-12-29T05:12:21;11.30;91.20
26099;DHT22;13860;52.370;6.764;2022-12-29T05:15:33;11.40;91.20
26099;DHT22;13860;52.370;6.764;2022-12-29T05:18:36;11.30;91.20
26099;DHT22;13860;52.370;6.764;2022-12-29T05:21:42;11.40;91.20
26099;DHT22;13860;52.370;6.764;2022-12-29T05:24:46;11.40;91.20
26099;DHT22;13860;52.370;6.764;2022-12-29T05:27:52;11.40;91.10
26099;DHT22;13860;52.370;6.764;2022-12-29T05:31:13;11.40;91.10
26099;DHT22;13860;52.370;6.764;2022-12-29T05:34:18;11.40;91.10
26099;DHT22;13860;52.370;6.764;2022-12-29T05:37:22;11.40;91.10
26099;DHT22;13860;52.370;6.764;2022-12-29T05:40:25;11.40;91.10
26099;DHT22;13860;52.370;6.764;2022-12-29T05:43:35;11.40;91.10
26099;DHT22;13860;52.370;6.764;2022-12-29T05:46:48;11.40;91.10
26099;DHT22;13860;52.370;6.764;2022-12-29T05:50:16;11.40;91.10
26099;DHT22;13860;52.370;6.764;2022-12-29T05:53:42;11.40;91.00
26099;DHT22;13860;52.370;6.764;2022-12-29T05:56:46;11.40;91.00
26099;DHT22;13860;52.370;6.764;2022-12-29T05:59:52;11.40;91.00
26099;DHT22;13860;52.370;6.764;2022-12-29T06:02:55;11.40;91.00
26099;DHT22;13860;52.370;6.764;2022-12-29T06:06:00;11.40;90.90
26099;DHT22;13860;52.370;6.764;2022-12-29T06:09:04;11.30;90.90
26099;DHT22;13860;52.370;6.764;2022-12-29T06:12:08;11.30;90.90
26099;DHT22;13860;52.370;6.764;2022-12-29T06:15:16;11.30;90.90
26099;DHT22;13860;52.370;6.764;2022-12-29T06:18:22;11.30;90.90
26099;DHT22;13860;52.370;6.764;2022-12-29T06:21:26;11.30;90.80
26099;DHT22;13860;52.370;6.764;2022-12-29T06:24:30;11.20;90.80
26099;DHT22;13860;52.370;6.764;2022-12-29T06:27:33;11.20;90.70
26099;DHT22;13860;52.370;6.764;2022-12-29T06:30:39;11.20;90.70
26099;DHT22;13860;52.370;6.764;2022-12-29T06:33:43;11.20;90.70
26099;DHT22;13860;52.370;6.764;2022-12-29T06:36:51;11.20;90.70
26099;DHT22;13860;52.370;6.764;2022-12-29T06:39:55;11.20;90.60
26099;DHT22;13860;52.370;6.764;2022-12-29T06:43:03;11.10;90.60
26099;DHT22;13860;52.370;6.764;2022-12-29T06:46:28;11.10;90.50
26099;DHT22;13860;52.370;6.764;2022-12-29T06:49:32;11.10;90.50
26099;DHT22;13860;52.370;6.764;2022-12-29T06:52:35;11.10;90.50
26099;DHT22;13860;52.370;6.764;2022-12-29T06:55:40;11.00;90.50
26099;DHT22;13860;52.370;6.764;2022-12-29T06:58:44;11.00;90.50
26099;DHT22;13860;52.370;6.764;2022-12-29T07:01:50;11.00;90.50
26099;DHT22;13860;52.370;6.764;2022-12-29T07:04:54;11.00;90.50
26099;DHT22;13860;52.370;6.764;2022-12-29T07:07:58;10.90;90.50
26099;DHT22;13860;52.370;6.764;2022-12-29T07:11:02;10.90;90.60
26099;DHT22;13860;52.370;6.764;2022-12-29T07:14:06;10.90;90.50
26099;DHT22;13860;52.370;6.764;2022-12-29T07:17:11;10.90;90.60
26099;DHT22;13860;52.370;6.764;2022-12-29T07:20:15;10.90;90.60
26099;DHT22;13860;52.370;6.764;2022-12-29T07:23:27;10.90;90.60
26099;DHT22;13860;52.370;6.764;2022-12-29T07:26:31;10.80;90.50
26099;DHT22;13860;52.370;6.764;2022-12-29T07:29:37;10.80;90.50
26099;DHT22;13860;52.370;6.764;2022-12-29T07:32:43;10.80;90.50
26099;DHT22;13860;52.370;6.764;2022-12-29T07:35:47;10.80;90.60
26099;DHT22;13860;52.370;6.764;2022-12-29T07:38:50;10.80;90.50
26099;DHT22;13860;52.370;6.764;2022-12-29T07:41:54;10.80;90.50
26099;DHT22;13860;52.370;6.764;2022-12-29T07:45:12;10.70;90.50
26099;DHT22;13860;52.370;6.764;2022-12-29T07:48:44;10.70;90.50
26099;DHT22;13860;52.370;6.764;2022-12-29T07:51:47;10.80;90.50
26099;DHT22;13860;52.370;6.764;2022-12-29T07:54:51;10.70;90.50
26099;DHT22;13860;52.370;6.764;2022-12-29T07:57:55;10.70;90.50
26099;DHT22;13860;52.370;6.764;2022-12-29T08:00:59;10.70;90.50
26099;DHT22;13860;52.370;6.764;2022-12-29T08:04:05;10.60;90.50
26099;DHT22;13860;52.370;6.764;2022-12-29T08:07:09;10.60;90.40
26099;DHT22;13860;52.370;6.764;2022-12-29T08:10:14;10.60;90.40
26099;DHT22;13860;52.370;6.764;2022-12-29T08:13:18;10.60;90.40
26099;DHT22;13860;52.370;6.764;2022-12-29T08:16:22;10.60;90.40
26099;DHT22;13860;52.370;6.764;2022-12-29T08:19:27;10.60;90.30
26099;DHT22;13860;52.370;6.764;2022-12-29T08:22:31;10.50;90.30
26099;DHT22;13860;52.370;6.764;2022-12-29T08:25:35;10.50;90.30
26099;DHT22;13860;52.370;6.764;2022-12-29T08:28:39;10.50;90.30
26099;DHT22;13860;52.370;6.764;2022-12-29T08:31:43;10.50;90.30
26099;DHT22;13860;52.370;6.764;2022-12-29T08:34:49;10.50;90.30
26099;DHT22;13860;52.370;6.764;2022-12-29T08:37:53;10.40;90.30
26099;DHT22;13860;52.370;6.764;2022-12-29T08:40:57;10.40;90.30
26099;DHT22;13860;52.370;6.764;2022-12-29T08:44:02;10.40;90.30
26099;DHT22;13860;52.370;6.764;2022-12-29T08:47:06;10.30;90.30
26099;DHT22;13860;52.370;6.764;2022-12-29T08:50:12;10.30;90.30
26099;DHT22;13860;52.370;6.764;2022-12-29T08:53:16;10.30;90.40
26099;DHT22;13860;52.370;6.764;2022-12-29T08:56:20;10.30;90.40
26099;DHT22;13860;52.370;6.764;2022-12-29T08:59:28;10.20;90.30
26099;DHT22;13860;52.370;6.764;2022-12-29T09:02:32;10.20;90.30
26099;DHT22;13860;52.370;6.764;2022-12-29T09:05:38;10.20;90.40
26099;DHT22;13860;52.370;6.764;2022-12-29T09:08:42;10.20;90.70
26099;DHT22;13860;52.370;6.764;2022-12-29T09:11:45;10.20;90.40
26099;DHT22;13860;52.370;6.764;2022-12-29T09:14:49;10.20;90.40
26099;DHT22;13860;52.370;6.764;2022-12-29T09:17:53;10.20;90.40
26099;DHT22;13860;52.370;6.764;2022-12-29T09:21:01;10.20;90.40
26099;DHT22;13860;52.370;6.764;2022-12-29T09:24:05;10.20;90.40
26099;DHT22;13860;52.370;6.764;2022-12-29T09:27:09;10.20;90.50
26099;DHT22;13860;52.370;6.764;2022-12-29T09:30:15;10.20;90.40
26099;DHT22;13860;52.370;6.764;2022-12-29T09:33:18;10.20;90.50
26099;DHT22;13860;52.370;6.764;2022-12-29T09:36:24;10.20;90.40
26099;DHT22;13860;52.370;6.764;2022-12-29T09:39:28;10.20;90.40
26099;DHT22;13860;52.370;6.764;2022-12-29T09:42:37;10.30;90.40
26099;DHT22;13860;52.370;6.764;2022-12-29T09:45:44;10.30;90.40
26099;DHT22;13860;52.370;6.764;2022-12-29T09:48:53;10.30;90.30
26099;DHT22;13860;52.370;6.764;2022-12-29T09:52:05;10.40;90.30
26099;DHT22;13860;52.370;6.764;2022-12-29T09:55:13;10.40;90.30
26099;DHT22;13860;52.370;6.764;2022-12-29T09:58:24;10.40;90.30
26099;DHT22;13860;52.370;6.764;2022-12-29T10:01:33;10.40;90.20
26099;DHT22;13860;52.370;6.764;2022-12-29T10:04:40;10.40;90.20
26099;DHT22;13860;52.370;6.764;2022-12-29T10:07:51;10.50;90.20
26099;DHT22;13860;52.370;6.764;2022-12-29T10:11:05;10.50;90.20
26099;DHT22;13860;52.370;6.764;2022-12-29T10:14:27;10.50;90.20
26099;DHT22;13860;52.370;6.764;2022-12-29T10:17:39;10.50;90.20
26099;DHT22;13860;52.370;6.764;2022-12-29T10:20:51;10.50;90.20
26099;DHT22;13860;52.370;6.764;2022-12-29T10:23:59;10.60;90.20
26099;DHT22;13860;52.370;6.764;2022-12-29T10:27:07;10.60;90.20
26099;DHT22;13860;52.370;6.764;2022-12-29T10:30:14;10.60;90.10
26099;DHT22;13860;52.370;6.764;2022-12-29T10:33:20;10.60;90.10
26099;DHT22;13860;52.370;6.764;2022-12-29T10:36:33;10.60;90.10
26099;DHT22;13860;52.370;6.764;2022-12-29T10:39:43;10.70;90.10
26099;DHT22;13860;52.370;6.764;2022-12-29T10:42:52;10.70;90.00
26099;DHT22;13860;52.370;6.764;2022-12-29T10:46:00;10.70;90.00
26099;DHT22;13860;52.370;6.764;2022-12-29T10:49:12;10.80;90.00
26099;DHT22;13860;52.370;6.764;2022-12-29T10:52:23;10.80;90.00
26099;DHT22;13860;52.370;6.764;2022-12-29T10:55:32;10.90;90.00
26099;DHT22;13860;52.370;6.764;2022-12-29T10:58:40;10.90;90.00
26099;DHT22;13860;52.370;6.764;2022-12-29T11:01:56;10.90;90.00
26099;DHT22;13860;52.370;6.764;2022-12-29T11:05:04;10.90;89.90
26099;DHT22;13860;52.370;6.764;2022-12-29T11:08:13;10.90;89.90
26099;DHT22;13860;52.370;6.764;2022-12-29T11:11:25;10.90;89.80
26099;DHT22;13860;52.370;6.764;2022-12-29T11:14:30;10.90;89.80
26099;DHT22;13860;52.370;6.764;2022-12-29T11:17:43;10.90;89.80
26099;DHT22;13860;52.370;6.764;2022-12-29T11:20:48;10.90;89.80
26099;DHT22;13860;52.370;6.764;2022-12-29T11:23:56;10.90;89.70
26099;DHT22;13860;52.370;6.764;2022-12-29T11:27:15;10.90;89.80
26099;DHT22;13860;52.370;6.764;2022-12-29T11:30:23;10.90;89.70
26099;DHT22;13860;52.370;6.764;2022-12-29T11:33:28;10.90;89.70
26099;DHT22;13860;52.370;6.764;2022-12-29T11:36:31;10.90;89.80
26099;DHT22;13860;52.370;6.764;2022-12-29T11:39:40;10.90;89.80
26099;DHT22;13860;52.370;6.764;2022-12-29T11:42:51;10.90;89.80
26099;DHT22;13860;52.370;6.764;2022-12-29T11:45:56;10.90;89.80
26099;DHT22;13860;52.370;6.764;2022-12-29T11:49:00;10.90;89.80
26099;DHT22;13860;52.370;6.764;2022-12-29T11:52:06;10.90;90.20
26099;DHT22;13860;52.370;6.764;2022-12-29T11:55:18;10.80;89.80
26099;DHT22;13860;52.370;6.764;2022-12-29T11:58:31;10.80;89.80
26099;DHT22;13860;52.370;6.764;2022-12-29T12:01:38;10.80;89.80
26099;DHT22;13860;52.370;6.764;2022-12-29T12:04:42;10.80;89.90
26099;DHT22;13860;52.370;6.764;2022-12-29T12:07:47;10.80;89.90
26099;DHT22;13860;52.370;6.764;2022-12-29T12:10:57;10.80;90.00
26099;DHT22;13860;52.370;6.764;2022-12-29T12:14:06;10.80;89.90
26099;DHT22;13860;52.370;6.764;2022-12-29T12:17:37;10.80;89.90
26099;DHT22;13860;52.370;6.764;2022-12-29T12:20:46;10.80;89.90
26099;DHT22;13860;52.370;6.764;2022-12-29T12:24:13;10.80;89.90
26099;DHT22;13860;52.370;6.764;2022-12-29T12:27:23;10.80;89.80
26099;DHT22;13860;52.370;6.764;2022-12-29T12:30:35;10.80;89.90
26099;DHT22;13860;52.370;6.764;2022-12-29T12:33:44;10.80;89.90
26099;DHT22;13860;52.370;6.764;2022-12-29T12:48:24;10.80;89.70
26099;DHT22;13860;52.370;6.764;2022-12-29T12:51:40;10.80;89.70
26099;DHT22;13860;52.370;6.764;2022-12-29T12:55:09;10.80;89.70
26099;DHT22;13860;52.370;6.764;2022-12-29T12:58:23;10.80;89.70
26099;DHT22;13860;52.370;6.764;2022-12-29T13:01:38;10.80;89.70
26099;DHT22;13860;52.370;6.764;2022-12-29T13:04:57;10.80;89.80
26099;DHT22;13860;52.370;6.764;2022-12-29T13:08:24;10.70;89.60
26099;DHT22;13860;52.370;6.764;2022-12-29T13:11:41;10.70;89.50
26099;DHT22;13860;52.370;6.764;2022-12-29T13:14:58;10.70;89.60
26099;DHT22;13860;52.370;6.764;2022-12-29T13:18:11;10.70;89.60
26099;DHT22;13860;52.370;6.764;2022-12-29T13:21:33;10.70;89.60
26099;DHT22;13860;52.370;6.764;2022-12-29T13:24:47;10.70;89.50
26099;DHT22;13860;52.370;6.764;2022-12-29T13:27:58;10.70;89.50
26099;DHT22;13860;52.370;6.764;2022-12-29T13:31:11;10.70;89.50
26099;DHT22;13860;52.370;6.764;2022-12-29T13:34:28;10.60;89.30
26099;DHT22;13860;52.370;6.764;2022-12-29T13:37:46;10.60;89.30
26099;DHT22;13860;52.370;6.764;2022-12-29T13:40:54;10.60;89.30
26099;DHT22;13860;52.370;6.764;2022-12-29T13:43:58;10.60;89.40
26099;DHT22;13860;52.370;6.764;2022-12-29T13:47:11;10.60;89.40
26099;DHT22;13860;52.370;6.764;2022-12-29T13:50:19;10.60;89.30
26099;DHT22;13860;52.370;6.764;2022-12-29T13:53:33;10.60;89.30
26099;DHT22;13860;52.370;6.764;2022-12-29T13:56:40;10.60;89.20
26099;DHT22;13860;52.370;6.764;2022-12-29T13:59:52;10.60;89.30
26099;DHT22;13860;52.370;6.764;2022-12-29T14:03:15;10.60;89.20
26099;DHT22;13860;52.370;6.764;2022-12-29T14:06:29;10.60;89.30
26099;DHT22;13860;52.370;6.764;2022-12-29T14:09:53;10.60;89.30
26099;DHT22;13860;52.370;6.764;2022-12-29T14:13:03;10.70;89.40
26099;DHT22;13860;52.370;6.764;2022-12-29T14:16:26;10.60;89.20
26099;DHT22;13860;52.370;6.764;2022-12-29T14:19:32;10.60;89.20
26099;DHT22;13860;52.370;6.764;2022-12-29T14:22:56;10.60;89.20
26099;DHT22;13860;52.370;6.764;2022-12-29T14:26:11;10.70;89.20
26099;DHT22;13860;52.370;6.764;2022-12-29T14:29:22;10.60;89.20
26099;DHT22;13860;52.370;6.764;2022-12-29T14:33:01;10.70;89.20
26099;DHT22;13860;52.370;6.764;2022-12-29T14:36:33;10.70;89.20
26099;DHT22;13860;52.370;6.764;2022-12-29T14:39:38;10.70;89.10
26099;DHT22;13860;52.370;6.764;2022-12-29T14:42:52;10.70;89.20
26099;DHT22;13860;52.370;6.764;2022-12-29T14:45:59;10.70;89.20
26099;DHT22;13860;52.370;6.764;2022-12-29T14:49:04;10.70;89.10
26099;DHT22;13860;52.370;6.764;2022-12-29T14:52:17;10.70;89.10
26099;DHT22;13860;52.370;6.764;2022-12-29T14:55:37;10.70;89.00
26099;DHT22;13860;52.370;6.764;2022-12-29T14:58:50;10.70;89.00
26099;DHT22;13860;52.370;6.764;2022-12-29T15:01:55;10.70;89.00
26099;DHT22;13860;52.370;6.764;2022-12-29T15:05:00;10.70;89.10
26099;DHT22;13860;52.370;6.764;2022-12-29T15:08:06;10.70;89.10
26099;DHT22;13860;52.370;6.764;2022-12-29T15:11:14;10.70;89.10
26099;DHT22;13860;52.370;6.764;2022-12-29T15:14:47;10.70;89.10
26099;DHT22;13860;52.370;6.764;2022-12-29T15:17:52;10.70;88.90
26099;DHT22;13860;52.370;6.764;2022-12-29T15:20:58;10.70;89.00
26099;DHT22;13860;52.370;6.764;2022-12-29T15:24:03;10.70;88.90
26099;DHT22;13860;52.370;6.764;2022-12-29T15:27:13;10.60;88.90
26099;DHT22;13860;52.370;6.764;2022-12-29T15:30:20;10.60;88.80
26099;DHT22;13860;52.370;6.764;2022-12-29T15:33:26;10.60;88.80
26099;DHT22;13860;52.370;6.764;2022-12-29T15:36:38;10.60;88.80
26099;DHT22;13860;52.370;6.764;2022-12-29T15:39:41;10.60;88.80
26099;DHT22;13860;52.370;6.764;2022-12-29T15:42:54;10.60;88.70
26099;DHT22;13860;52.370;6.764;2022-12-29T15:46:02;10.60;88.60
26099;DHT22;13860;52.370;6.764;2022-12-29T15:49:07;10.60;88.60
26099;DHT22;13860;52.370;6.764;2022-12-29T15:52:17;10.50;88.50
26099;DHT22;13860;52.370;6.764;2022-12-29T15:55:25;10.50;88.50
26099;DHT22;13860;52.370;6.764;2022-12-29T15:58:39;10.50;88.60
26099;DHT22;13860;52.370;6.764;2022-12-29T16:01:47;10.50;88.50
26099;DHT22;13860;52.370;6.764;2022-12-29T16:04:52;10.50;88.50
26099;DHT22;13860;52.370;6.764;2022-12-29T16:08:24;10.50;88.50
26099;DHT22;13860;52.370;6.764;2022-12-29T16:11:34;10.50;88.50
26099;DHT22;13860;52.370;6.764;2022-12-29T16:14:41;10.40;88.50
26099;DHT22;13860;52.370;6.764;2022-12-29T16:17:50;10.40;89.10
26099;DHT22;13860;52.370;6.764;2022-12-29T16:20:55;10.40;88.50
26099;DHT22;13860;52.370;6.764;2022-12-29T16:24:02;10.40;88.50
26099;DHT22;13860;52.370;6.764;2022-12-29T16:27:08;10.30;88.50
26099;DHT22;13860;52.370;6.764;2022-12-29T16:30:20;10.30;88.50
26099;DHT22;13860;52.370;6.764;2022-12-29T16:33:45;10.30;88.50
26099;DHT22;13860;52.370;6.764;2022-12-29T16:36:53;10.20;88.50
26099;DHT22;13860;52.370;6.764;2022-12-29T16:40:24;10.20;88.60
26099;DHT22;13860;52.370;6.764;2022-12-29T16:43:31;10.20;88.60
26099;DHT22;13860;52.370;6.764;2022-12-29T16:46:37;10.20;88.60
26099;DHT22;13860;52.370;6.764;2022-12-29T16:49:49;10.20;88.60
26099;DHT22;13860;52.370;6.764;2022-12-29T16:52:54;10.10;88.60
26099;DHT22;13860;52.370;6.764;2022-12-29T16:56:03;10.20;88.80
26099;DHT22;13860;52.370;6.764;2022-12-29T16:59:30;10.10;89.30
26099;DHT22;13860;52.370;6.764;2022-12-29T17:02:35;10.10;88.70
26099;DHT22;13860;52.370;6.764;2022-12-29T17:05:47;10.10;88.80
26099;DHT22;13860;52.370;6.764;2022-12-29T17:08:58;10.10;88.80
26099;DHT22;13860;52.370;6.764;2022-12-29T17:12:03;10.10;88.90
26099;DHT22;13860;52.370;6.764;2022-12-29T17:15:17;10.00;88.80
26099;DHT22;13860;52.370;6.764;2022-12-29T17:18:25;10.00;88.80
26099;DHT22;13860;52.370;6.764;2022-12-29T17:21:30;10.00;88.90
26099;DHT22;13860;52.370;6.764;2022-12-29T17:24:35;10.10;88.90
26099;DHT22;13860;52.370;6.764;2022-12-29T17:27:42;10.10;88.90
26099;DHT22;13860;52.370;6.764;2022-12-29T17:30:46;10.00;88.90
26099;DHT22;13860;52.370;6.764;2022-12-29T17:33:50;10.00;88.90
26099;DHT22;13860;52.370;6.764;2022-12-29T17:36:59;10.00;88.80
26099;DHT22;13860;52.370;6.764;2022-12-29T17:40:04;10.00;88.80
26099;DHT22;13860;52.370;6.764;2022-12-29T17:43:11;10.00;88.80
26099;DHT22;13860;52.370;6.764;2022-12-29T17:46:15;10.00;88.80
26099;DHT22;13860;52.370;6.764;2022-12-29T17:49:20;10.00;88.70
26099;DHT22;13860;52.370;6.764;2022-12-29T17:52:26;10.00;88.80
26099;DHT22;13860;52.370;6.764;2022-12-29T17:55:29;10.00;88.70
26099;DHT22;13860;52.370;6.764;2022-12-29T17:58:39;10.00;88.70
26099;DHT22;13860;52.370;6.764;2022-12-29T18:01:45;10.00;88.70
26099;DHT22;13860;52.370;6.764;2022-12-29T18:04:50;10.00;88.60
26099;DHT22;13860;52.370;6.764;2022-12-29T18:07:56;10.00;88.50
26099;DHT22;13860;52.370;6.764;2022-12-29T18:11:00;10.00;88.50
26099;DHT22;13860;52.370;6.764;2022-12-29T18:14:04;10.00;88.60
26099;DHT22;13860;52.370;6.764;2022-12-29T18:17:08;10.00;88.50
26099;DHT22;13860;52.370;6.764;2022-12-29T18:20:15;10.00;88.60
26099;DHT22;13860;52.370;6.764;2022-12-29T18:23:23;9.90;88.50
26099;DHT22;13860;52.370;6.764;2022-12-29T18:26:28;10.00;88.50
26099;DHT22;13860;52.370;6.764;2022-12-29T18:29:33;10.00;88.50
26099;DHT22;13860;52.370;6.764;2022-12-29T18:32:37;9.90;88.40
26099;DHT22;13860;52.370;6.764;2022-12-29T18:35:43;9.90;88.30
26099;DHT22;13860;52.370;6.764;2022-12-29T18:38:51;9.90;88.30
26099;DHT22;13860;52.370;6.764;2022-12-29T18:43:21;9.90;88.30
26099;DHT22;13860;52.370;6.764;2022-12-29T18:46:25;9.90;88.20
26099;DHT22;13860;52.370;6.764;2022-12-29T18:49:30;9.90;88.20
26099;DHT22;13860;52.370;6.764;2022-12-29T18:52:34;9.90;88.20
26099;DHT22;13860;52.370;6.764;2022-12-29T18:55:38;9.90;88.10
26099;DHT22;13860;52.370;6.764;2022-12-29T18:58:43;9.90;88.10
26099;DHT22;13860;52.370;6.764;2022-12-29T19:01:47;9.90;88.00
26099;DHT22;13860;52.370;6.764;2022-12-29T19:04:51;9.80;88.00
26099;DHT22;13860;52.370;6.764;2022-12-29T19:08:08;9.80;88.00
26099;DHT22;13860;52.370;6.764;2022-12-29T19:11:12;9.80;87.90
26099;DHT22;13860;52.370;6.764;2022-12-29T19:14:18;9.80;87.90
26099;DHT22;13860;52.370;6.764;2022-12-29T19:17:22;9.80;88.00
26099;DHT22;13860;52.370;6.764;2022-12-29T19:21:15;9.80;87.90
26099;DHT22;13860;52.370;6.764;2022-12-29T19:24:20;9.70;86.60
26099;DHT22;13860;52.370;6.764;2022-12-29T19:27:24;9.70;87.10
26099;DHT22;13860;52.370;6.764;2022-12-29T19:30:28;9.70;87.20
26099;DHT22;13860;52.370;6.764;2022-12-29T19:33:33;9.70;87.20
26099;DHT22;13860;52.370;6.764;2022-12-29T19:36:39;9.70;87.20
26099;DHT22;13860;52.370;6.764;2022-12-29T19:39:43;9.70;87.20
26099;DHT22;13860;52.370;6.764;2022-12-29T19:42:48;9.70;87.20
26099;DHT22;13860;52.370;6.764;2022-12-29T19:45:52;9.60;87.10
26099;DHT22;13860;52.370;6.764;2022-12-29T19:48:56;9.60;87.10
26099;DHT22;13860;52.370;6.764;2022-12-29T19:52:03;9.60;87.10
26099;DHT22;13860;52.370;6.764;2022-12-29T19:55:07;9.60;87.10
26099;DHT22;13860;52.370;6.764;2022-12-29T19:58:12;9.60;87.80
26099;DHT22;13860;52.370;6.764;2022-12-29T20:01:17;9.60;87.10
26099;DHT22;13860;52.370;6.764;2022-12-29T20:04:22;9.50;87.00
26099;DHT22;13860;52.370;6.764;2022-12-29T20:07:28;9.50;87.10
26099;DHT22;13860;52.370;6.764;2022-12-29T20:10:32;9.50;87.00
26099;DHT22;13860;52.370;6.764;2022-12-29T20:13:36;9.40;86.90
26099;DHT22;13860;52.370;6.764;2022-12-29T20:16:40;9.40;87.00
26099;DHT22;13860;52.370;6.764;2022-12-29T20:20:05;9.40;86.90